sensor_id;sensor_type;location;lat;lon;timestamp;P1;durP1;ratioP1;P2;durP2;ratioP2
51901;SDS011;37929;53.218;6.548;2023-12-04T00:02:05;33.83;;;15.95;;
51901;SDS011;37929;53.218;6.548;2023-12-04T00:04:31;32.95;;;16.38;;
51901;SDS011;37929;53.218;6.548;2023-12-04T00:06:57;31.55;;;15.10;;
51901;SDS011;37929;53.218;6.548;2023-12-04T00:09:23;35.38;;;17.17;;
51901;SDS011;37929;53.218;6.548;2023-12-04T00:11:49;35.42;;;17.10;;
51901;SDS011;37929;53.218;6.548;2023-12-04T00:14:15;38.65;;;17.42;;
51901;SDS011;37929;53.218;6.548;2023-12-04T00:16:41;34.53;;;17.10;;
51901;SDS011;37929;53.218;6.548;2023-12-04T00:19:07;34.20;;;17.02;;
51901;SDS011;37929;53.218;6.548;2023-12-04T00:21:35;36.33;;;17.40;;
51901;SDS011;37929;53.218;6.548;2023-12-04T00:24:01;37.83;;;18.50;;
51901;SDS011;37929;53.218;6.548;2023-12-04T00:26:28;31.02;;;15.70;;
51901;SDS011;37929;53.218;6.548;2023-12-04T00:28:54;36.72;;;18.15;;
51901;SDS011;37929;53.218;6.548;2023-12-04T00:31:19;33.42;;;17.05;;
51901;SDS011;37929;53.218;6.548;2023-12-04T00:33:45;39.30;;;18.33;;
51901;SDS011;37929;53.218;6.548;2023-12-04T00:36:11;36.58;;;17.65;;
51901;SDS011;37929;53.218;6.548;2023-12-04T00:38:36;37.63;;;17.98;;
51901;SDS011;37929;53.218;6.548;2023-12-04T00:41:02;37.85;;;19.08;;
51901;SDS011;37929;53.218;6.548;2023-12-04T00:43:28;33.55;;;16.58;;
51901;SDS011;37929;53.218;6.548;2023-12-04T00:45:54;35.35;;;15.88;;
51901;SDS011;37929;53.218;6.548;2023-12-04T00:48:19;37.20;;;18.60;;
51901;SDS011;37929;53.218;6.548;2023-12-04T00:50:46;37.58;;;17.83;;
51901;SDS011;37929;53.218;6.548;2023-12-04T00:53:11;34.35;;;16.70;;
51901;SDS011;37929;53.218;6.548;2023-12-04T00:55:37;36.03;;;18.42;;
51901;SDS011;37929;53.218;6.548;2023-12-04T00:58:05;35.00;;;17.67;;
51901;SDS011;37929;53.218;6.548;2023-12-04T01:00:31;38.80;;;18.98;;
51901;SDS011;37929;53.218;6.548;2023-12-04T01:02:57;38.78;;;16.95;;
51901;SDS011;37929;53.218;6.548;2023-12-04T01:05:23;34.50;;;17.63;;
51901;SDS011;37929;53.218;6.548;2023-12-04T01:07:48;34.45;;;17.38;;
51901;SDS011;37929;53.218;6.548;2023-12-04T01:10:17;35.03;;;17.08;;
51901;SDS011;37929;53.218;6.548;2023-12-04T01:12:43;35.58;;;18.60;;
51901;SDS011;37929;53.218;6.548;2023-12-04T01:15:09;34.88;;;16.98;;
51901;SDS011;37929;53.218;6.548;2023-12-04T01:17:35;37.00;;;16.48;;
51901;SDS011;37929;53.218;6.548;2023-12-04T01:20:01;33.35;;;15.57;;
51901;SDS011;37929;53.218;6.548;2023-12-04T01:22:26;34.42;;;17.05;;
51901;SDS011;37929;53.218;6.548;2023-12-04T01:24:52;35.75;;;16.77;;
51901;SDS011;37929;53.218;6.548;2023-12-04T01:27:18;32.20;;;16.50;;
51901;SDS011;37929;53.218;6.548;2023-12-04T01:29:43;33.88;;;17.15;;
51901;SDS011;37929;53.218;6.548;2023-12-04T01:32:09;31.75;;;16.70;;
51901;SDS011;37929;53.218;6.548;2023-12-04T01:34:35;34.55;;;17.70;;
51901;SDS011;37929;53.218;6.548;2023-12-04T01:37:01;32.67;;;16.30;;
51901;SDS011;37929;53.218;6.548;2023-12-04T01:39:26;36.03;;;17.25;;
51901;SDS011;37929;53.218;6.548;2023-12-04T01:41:52;33.05;;;16.88;;
51901;SDS011;37929;53.218;6.548;2023-12-04T01:44:18;31.73;;;16.48;;
51901;SDS011;37929;53.218;6.548;2023-12-04T01:46:44;33.67;;;16.75;;
51901;SDS011;37929;53.218;6.548;2023-12-04T01:49:10;32.38;;;17.10;;
51901;SDS011;37929;53.218;6.548;2023-12-04T01:51:36;31.77;;;15.52;;
51901;SDS011;37929;53.218;6.548;2023-12-04T01:54:02;28.23;;;15.45;;
51901;SDS011;37929;53.218;6.548;2023-12-04T01:56:30;35.95;;;17.65;;
51901;SDS011;37929;53.218;6.548;2023-12-04T01:58:56;29.65;;;15.73;;
51901;SDS011;37929;53.218;6.548;2023-12-04T02:01:23;32.88;;;16.33;;
51901;SDS011;37929;53.218;6.548;2023-12-04T02:03:49;31.98;;;16.00;;
51901;SDS011;37929;53.218;6.548;2023-12-04T02:06:16;34.83;;;16.17;;
51901;SDS011;37929;53.218;6.548;2023-12-04T02:08:42;33.28;;;16.65;;
51901;SDS011;37929;53.218;6.548;2023-12-04T02:11:09;33.45;;;16.52;;
51901;SDS011;37929;53.218;6.548;2023-12-04T02:13:35;27.10;;;15.77;;
51901;SDS011;37929;53.218;6.548;2023-12-04T02:16:02;33.75;;;15.82;;
51901;SDS011;37929;53.218;6.548;2023-12-04T02:18:33;32.87;;;16.20;;
51901;SDS011;37929;53.218;6.548;2023-12-04T02:21:00;31.80;;;15.55;;
51901;SDS011;37929;53.218;6.548;2023-12-04T02:23:26;29.77;;;15.30;;
51901;SDS011;37929;53.218;6.548;2023-12-04T02:25:54;32.72;;;15.23;;
51901;SDS011;37929;53.218;6.548;2023-12-04T02:28:23;31.42;;;15.35;;
51901;SDS011;37929;53.218;6.548;2023-12-04T02:30:52;33.05;;;16.20;;
51901;SDS011;37929;53.218;6.548;2023-12-04T02:33:19;35.42;;;17.85;;
51901;SDS011;37929;53.218;6.548;2023-12-04T02:35:48;31.35;;;15.88;;
51901;SDS011;37929;53.218;6.548;2023-12-04T02:38:16;30.85;;;15.52;;
51901;SDS011;37929;53.218;6.548;2023-12-04T02:40:43;33.20;;;14.57;;
51901;SDS011;37929;53.218;6.548;2023-12-04T02:43:09;27.50;;;15.93;;
51901;SDS011;37929;53.218;6.548;2023-12-04T02:45:34;30.58;;;15.77;;
51901;SDS011;37929;53.218;6.548;2023-12-04T02:48:00;31.35;;;15.95;;
51901;SDS011;37929;53.218;6.548;2023-12-04T02:50:26;31.27;;;15.32;;
51901;SDS011;37929;53.218;6.548;2023-12-04T02:52:52;30.98;;;16.17;;
51901;SDS011;37929;53.218;6.548;2023-12-04T02:55:17;34.00;;;16.88;;
51901;SDS011;37929;53.218;6.548;2023-12-04T02:57:43;32.88;;;15.70;;
51901;SDS011;37929;53.218;6.548;2023-12-04T03:00:09;34.28;;;16.17;;
51901;SDS011;37929;53.218;6.548;2023-12-04T03:02:35;32.22;;;16.23;;
51901;SDS011;37929;53.218;6.548;2023-12-04T03:05:01;31.65;;;15.50;;
51901;SDS011;37929;53.218;6.548;2023-12-04T03:07:27;35.03;;;16.70;;
51901;SDS011;37929;53.218;6.548;2023-12-04T03:09:52;30.83;;;16.42;;
51901;SDS011;37929;53.218;6.548;2023-12-04T03:12:18;33.20;;;15.65;;
51901;SDS011;37929;53.218;6.548;2023-12-04T03:14:44;32.97;;;17.17;;
51901;SDS011;37929;53.218;6.548;2023-12-04T03:17:10;32.97;;;14.90;;
51901;SDS011;37929;53.218;6.548;2023-12-04T03:19:35;33.65;;;16.20;;
51901;SDS011;37929;53.218;6.548;2023-12-04T03:22:01;32.63;;;16.15;;
51901;SDS011;37929;53.218;6.548;2023-12-04T03:24:27;36.15;;;15.75;;
51901;SDS011;37929;53.218;6.548;2023-12-04T03:26:53;34.33;;;16.33;;
51901;SDS011;37929;53.218;6.548;2023-12-04T03:29:18;31.20;;;16.55;;
51901;SDS011;37929;53.218;6.548;2023-12-04T03:31:44;35.13;;;16.88;;
51901;SDS011;37929;53.218;6.548;2023-12-04T03:34:10;31.60;;;16.48;;
51901;SDS011;37929;53.218;6.548;2023-12-04T03:36:36;30.55;;;15.45;;
51901;SDS011;37929;53.218;6.548;2023-12-04T03:39:01;34.92;;;17.48;;
51901;SDS011;37929;53.218;6.548;2023-12-04T03:41:27;32.75;;;15.40;;
51901;SDS011;37929;53.218;6.548;2023-12-04T03:43:53;29.83;;;16.17;;
51901;SDS011;37929;53.218;6.548;2023-12-04T03:46:19;33.55;;;16.27;;
51901;SDS011;37929;53.218;6.548;2023-12-04T03:48:45;31.75;;;15.77;;
51901;SDS011;37929;53.218;6.548;2023-12-04T03:51:10;32.65;;;15.43;;
51901;SDS011;37929;53.218;6.548;2023-12-04T03:53:36;32.53;;;15.23;;
51901;SDS011;37929;53.218;6.548;2023-12-04T03:56:02;36.05;;;16.45;;
51901;SDS011;37929;53.218;6.548;2023-12-04T03:58:28;32.05;;;15.65;;
51901;SDS011;37929;53.218;6.548;2023-12-04T04:00:54;33.33;;;16.00;;
51901;SDS011;37929;53.218;6.548;2023-12-04T04:03:19;32.25;;;16.13;;
51901;SDS011;37929;53.218;6.548;2023-12-04T04:05:45;34.88;;;17.35;;
51901;SDS011;37929;53.218;6.548;2023-12-04T04:08:11;32.38;;;16.25;;
51901;SDS011;37929;53.218;6.548;2023-12-04T04:10:37;33.80;;;16.02;;
51901;SDS011;37929;53.218;6.548;2023-12-04T04:13:02;32.25;;;16.73;;
51901;SDS011;37929;53.218;6.548;2023-12-04T04:15:28;32.80;;;16.15;;
51901;SDS011;37929;53.218;6.548;2023-12-04T04:17:54;33.97;;;17.17;;
51901;SDS011;37929;53.218;6.548;2023-12-04T04:20:21;36.10;;;15.77;;
51901;SDS011;37929;53.218;6.548;2023-12-04T04:22:48;30.95;;;14.73;;
51901;SDS011;37929;53.218;6.548;2023-12-04T04:25:14;33.33;;;16.27;;
51901;SDS011;37929;53.218;6.548;2023-12-04T04:27:40;32.47;;;15.88;;
51901;SDS011;37929;53.218;6.548;2023-12-04T04:30:06;32.30;;;15.65;;
51901;SDS011;37929;53.218;6.548;2023-12-04T04:32:33;33.17;;;16.23;;
51901;SDS011;37929;53.218;6.548;2023-12-04T04:34:59;33.08;;;15.80;;
51901;SDS011;37929;53.218;6.548;2023-12-04T04:37:25;30.05;;;15.45;;
51901;SDS011;37929;53.218;6.548;2023-12-04T04:39:50;33.88;;;15.20;;
51901;SDS011;37929;53.218;6.548;2023-12-04T04:42:16;34.10;;;16.55;;
51901;SDS011;37929;53.218;6.548;2023-12-04T04:44:42;34.08;;;15.88;;
51901;SDS011;37929;53.218;6.548;2023-12-04T04:47:07;32.67;;;15.27;;
51901;SDS011;37929;53.218;6.548;2023-12-04T04:49:33;32.75;;;16.27;;
51901;SDS011;37929;53.218;6.548;2023-12-04T04:51:59;33.47;;;15.48;;
51901;SDS011;37929;53.218;6.548;2023-12-04T04:54:25;33.25;;;15.75;;
51901;SDS011;37929;53.218;6.548;2023-12-04T04:56:50;35.90;;;16.15;;
51901;SDS011;37929;53.218;6.548;2023-12-04T04:59:16;32.58;;;15.68;;
51901;SDS011;37929;53.218;6.548;2023-12-04T05:01:42;30.73;;;14.85;;
51901;SDS011;37929;53.218;6.548;2023-12-04T05:04:08;31.55;;;16.38;;
51901;SDS011;37929;53.218;6.548;2023-12-04T05:06:34;31.58;;;16.02;;
51901;SDS011;37929;53.218;6.548;2023-12-04T05:09:00;31.85;;;15.13;;
51901;SDS011;37929;53.218;6.548;2023-12-04T05:11:25;31.98;;;16.75;;
51901;SDS011;37929;53.218;6.548;2023-12-04T05:13:51;31.08;;;15.27;;
51901;SDS011;37929;53.218;6.548;2023-12-04T05:16:17;33.63;;;16.15;;
51901;SDS011;37929;53.218;6.548;2023-12-04T05:18:43;32.30;;;14.82;;
51901;SDS011;37929;53.218;6.548;2023-12-04T05:21:09;31.88;;;15.35;;
51901;SDS011;37929;53.218;6.548;2023-12-04T05:23:36;35.72;;;15.98;;
51901;SDS011;37929;53.218;6.548;2023-12-04T05:26:02;32.65;;;15.65;;
51901;SDS011;37929;53.218;6.548;2023-12-04T05:28:28;30.33;;;14.50;;
51901;SDS011;37929;53.218;6.548;2023-12-04T05:30:53;32.95;;;14.38;;
51901;SDS011;37929;53.218;6.548;2023-12-04T05:33:19;30.80;;;15.50;;
51901;SDS011;37929;53.218;6.548;2023-12-04T05:35:46;29.83;;;14.90;;
51901;SDS011;37929;53.218;6.548;2023-12-04T05:38:13;30.42;;;15.00;;
51901;SDS011;37929;53.218;6.548;2023-12-04T05:40:39;32.05;;;14.60;;
51901;SDS011;37929;53.218;6.548;2023-12-04T05:43:04;33.58;;;15.73;;
51901;SDS011;37929;53.218;6.548;2023-12-04T05:45:30;33.30;;;15.02;;
51901;SDS011;37929;53.218;6.548;2023-12-04T05:47:56;33.00;;;15.98;;
51901;SDS011;37929;53.218;6.548;2023-12-04T05:50:21;28.40;;;14.82;;
51901;SDS011;37929;53.218;6.548;2023-12-04T05:52:47;30.55;;;14.90;;
51901;SDS011;37929;53.218;6.548;2023-12-04T05:55:13;30.48;;;16.55;;
51901;SDS011;37929;53.218;6.548;2023-12-04T05:57:39;36.05;;;16.40;;
51901;SDS011;37929;53.218;6.548;2023-12-04T06:00:06;29.85;;;15.63;;
51901;SDS011;37929;53.218;6.548;2023-12-04T06:02:46;28.83;;;14.07;;
51901;SDS011;37929;53.218;6.548;2023-12-04T06:05:12;29.60;;;15.10;;
51901;SDS011;37929;53.218;6.548;2023-12-04T06:07:38;29.65;;;14.60;;
51901;SDS011;37929;53.218;6.548;2023-12-04T06:10:04;28.45;;;14.57;;
51901;SDS011;37929;53.218;6.548;2023-12-04T06:12:30;29.25;;;13.98;;
51901;SDS011;37929;53.218;6.548;2023-12-04T06:14:57;29.15;;;14.93;;
51901;SDS011;37929;53.218;6.548;2023-12-04T06:17:23;27.90;;;13.45;;
51901;SDS011;37929;53.218;6.548;2023-12-04T06:19:50;27.05;;;14.57;;
51901;SDS011;37929;53.218;6.548;2023-12-04T06:22:15;27.95;;;14.52;;
51901;SDS011;37929;53.218;6.548;2023-12-04T06:24:43;30.67;;;14.60;;
51901;SDS011;37929;53.218;6.548;2023-12-04T06:27:10;32.33;;;14.45;;
51901;SDS011;37929;53.218;6.548;2023-12-04T06:29:46;25.55;;;13.60;;
51901;SDS011;37929;53.218;6.548;2023-12-04T06:32:13;31.13;;;15.70;;
51901;SDS011;37929;53.218;6.548;2023-12-04T06:34:40;28.45;;;14.55;;
51901;SDS011;37929;53.218;6.548;2023-12-04T06:37:12;28.27;;;14.10;;
51901;SDS011;37929;53.218;6.548;2023-12-04T06:39:38;27.55;;;13.75;;
51901;SDS011;37929;53.218;6.548;2023-12-04T06:42:06;25.90;;;13.35;;
51901;SDS011;37929;53.218;6.548;2023-12-04T06:44:32;29.90;;;15.30;;
51901;SDS011;37929;53.218;6.548;2023-12-04T06:47:00;28.10;;;14.38;;
51901;SDS011;37929;53.218;6.548;2023-12-04T06:49:30;24.60;;;13.57;;
51901;SDS011;37929;53.218;6.548;2023-12-04T06:51:58;26.55;;;13.52;;
51901;SDS011;37929;53.218;6.548;2023-12-04T06:54:27;25.45;;;13.50;;
51901;SDS011;37929;53.218;6.548;2023-12-04T06:56:53;27.38;;;14.35;;
51901;SDS011;37929;53.218;6.548;2023-12-04T06:59:19;25.00;;;13.00;;
51901;SDS011;37929;53.218;6.548;2023-12-04T07:01:45;28.15;;;12.95;;
51901;SDS011;37929;53.218;6.548;2023-12-04T07:04:11;25.50;;;13.38;;
51901;SDS011;37929;53.218;6.548;2023-12-04T07:06:38;26.77;;;13.65;;
51901;SDS011;37929;53.218;6.548;2023-12-04T07:09:04;24.95;;;12.93;;
51901;SDS011;37929;53.218;6.548;2023-12-04T07:11:36;22.80;;;12.85;;
51901;SDS011;37929;53.218;6.548;2023-12-04T07:14:02;25.63;;;12.35;;
51901;SDS011;37929;53.218;6.548;2023-12-04T07:16:28;23.75;;;12.65;;
51901;SDS011;37929;53.218;6.548;2023-12-04T07:18:54;25.13;;;13.50;;
51901;SDS011;37929;53.218;6.548;2023-12-04T07:21:20;23.65;;;12.82;;
51901;SDS011;37929;53.218;6.548;2023-12-04T07:23:46;25.83;;;13.20;;
51901;SDS011;37929;53.218;6.548;2023-12-04T07:26:12;29.02;;;13.75;;
51901;SDS011;37929;53.218;6.548;2023-12-04T07:28:41;27.38;;;13.73;;
51901;SDS011;37929;53.218;6.548;2023-12-04T07:31:06;23.17;;;13.18;;
51901;SDS011;37929;53.218;6.548;2023-12-04T07:33:32;23.30;;;12.52;;
51901;SDS011;37929;53.218;6.548;2023-12-04T07:35:58;25.45;;;13.13;;
51901;SDS011;37929;53.218;6.548;2023-12-04T07:38:24;24.55;;;12.93;;
51901;SDS011;37929;53.218;6.548;2023-12-04T07:40:50;26.90;;;14.02;;
51901;SDS011;37929;53.218;6.548;2023-12-04T07:43:15;26.13;;;12.57;;
51901;SDS011;37929;53.218;6.548;2023-12-04T07:45:42;25.13;;;12.65;;
51901;SDS011;37929;53.218;6.548;2023-12-04T07:48:08;27.23;;;12.98;;
51901;SDS011;37929;53.218;6.548;2023-12-04T07:50:34;25.48;;;13.77;;
51901;SDS011;37929;53.218;6.548;2023-12-04T07:53:02;25.77;;;13.90;;
51901;SDS011;37929;53.218;6.548;2023-12-04T07:55:28;23.55;;;12.20;;
51901;SDS011;37929;53.218;6.548;2023-12-04T07:57:54;25.95;;;13.00;;
51901;SDS011;37929;53.218;6.548;2023-12-04T08:00:21;21.75;;;11.98;;
51901;SDS011;37929;53.218;6.548;2023-12-04T08:02:51;24.02;;;11.80;;
51901;SDS011;37929;53.218;6.548;2023-12-04T08:05:17;23.42;;;12.45;;
51901;SDS011;37929;53.218;6.548;2023-12-04T08:07:42;23.70;;;11.23;;
51901;SDS011;37929;53.218;6.548;2023-12-04T08:10:08;23.17;;;11.93;;
51901;SDS011;37929;53.218;6.548;2023-12-04T08:12:34;19.27;;;11.13;;
51901;SDS011;37929;53.218;6.548;2023-12-04T08:15:00;21.23;;;10.88;;
51901;SDS011;37929;53.218;6.548;2023-12-04T08:17:26;20.70;;;11.43;;
51901;SDS011;37929;53.218;6.548;2023-12-04T08:19:52;19.77;;;11.23;;
51901;SDS011;37929;53.218;6.548;2023-12-04T08:22:19;21.73;;;11.30;;
51901;SDS011;37929;53.218;6.548;2023-12-04T08:24:48;22.63;;;11.90;;
51901;SDS011;37929;53.218;6.548;2023-12-04T08:27:14;19.55;;;11.05;;
51901;SDS011;37929;53.218;6.548;2023-12-04T08:29:40;21.42;;;11.32;;
51901;SDS011;37929;53.218;6.548;2023-12-04T08:32:06;17.85;;;10.10;;
51901;SDS011;37929;53.218;6.548;2023-12-04T08:34:31;19.05;;;10.50;;
51901;SDS011;37929;53.218;6.548;2023-12-04T08:36:57;20.55;;;10.55;;
51901;SDS011;37929;53.218;6.548;2023-12-04T08:39:23;22.02;;;11.63;;
51901;SDS011;37929;53.218;6.548;2023-12-04T08:41:49;20.35;;;10.63;;
51901;SDS011;37929;53.218;6.548;2023-12-04T08:44:14;20.63;;;10.65;;
51901;SDS011;37929;53.218;6.548;2023-12-04T08:46:41;17.60;;;10.23;;
51901;SDS011;37929;53.218;6.548;2023-12-04T08:49:07;19.70;;;10.70;;
51901;SDS011;37929;53.218;6.548;2023-12-04T08:51:33;18.70;;;9.68;;
51901;SDS011;37929;53.218;6.548;2023-12-04T08:53:59;17.77;;;9.52;;
51901;SDS011;37929;53.218;6.548;2023-12-04T08:56:25;18.58;;;10.10;;
51901;SDS011;37929;53.218;6.548;2023-12-04T08:58:50;19.27;;;10.48;;
51901;SDS011;37929;53.218;6.548;2023-12-04T09:01:16;19.52;;;10.15;;
51901;SDS011;37929;53.218;6.548;2023-12-04T09:03:42;18.42;;;10.10;;
51901;SDS011;37929;53.218;6.548;2023-12-04T09:06:08;19.83;;;9.80;;
51901;SDS011;37929;53.218;6.548;2023-12-04T09:08:34;16.95;;;9.45;;
51901;SDS011;37929;53.218;6.548;2023-12-04T09:11:00;17.55;;;9.18;;
51901;SDS011;37929;53.218;6.548;2023-12-04T09:13:26;16.45;;;9.18;;
51901;SDS011;37929;53.218;6.548;2023-12-04T09:15:52;17.00;;;8.77;;
51901;SDS011;37929;53.218;6.548;2023-12-04T09:18:18;18.00;;;9.32;;
51901;SDS011;37929;53.218;6.548;2023-12-04T09:20:43;15.60;;;8.35;;
51901;SDS011;37929;53.218;6.548;2023-12-04T09:23:09;15.50;;;8.85;;
51901;SDS011;37929;53.218;6.548;2023-12-04T09:25:35;14.82;;;8.48;;
51901;SDS011;37929;53.218;6.548;2023-12-04T09:28:01;16.15;;;8.57;;
51901;SDS011;37929;53.218;6.548;2023-12-04T09:30:27;15.07;;;9.32;;
51901;SDS011;37929;53.218;6.548;2023-12-04T09:32:53;16.80;;;9.57;;
51901;SDS011;37929;53.218;6.548;2023-12-04T09:35:19;17.23;;;8.98;;
51901;SDS011;37929;53.218;6.548;2023-12-04T09:37:45;16.52;;;8.45;;
51901;SDS011;37929;53.218;6.548;2023-12-04T09:40:11;17.40;;;8.90;;
51901;SDS011;37929;53.218;6.548;2023-12-04T09:42:37;16.98;;;9.00;;
51901;SDS011;37929;53.218;6.548;2023-12-04T09:45:05;17.60;;;9.00;;
51901;SDS011;37929;53.218;6.548;2023-12-04T09:47:33;16.20;;;9.20;;
51901;SDS011;37929;53.218;6.548;2023-12-04T09:49:59;14.93;;;9.18;;
51901;SDS011;37929;53.218;6.548;2023-12-04T09:52:27;14.88;;;8.23;;
51901;SDS011;37929;53.218;6.548;2023-12-04T09:54:53;16.60;;;8.15;;
51901;SDS011;37929;53.218;6.548;2023-12-04T09:57:19;16.23;;;8.70;;
51901;SDS011;37929;53.218;6.548;2023-12-04T09:59:47;15.73;;;8.23;;
51901;SDS011;37929;53.218;6.548;2023-12-04T10:02:13;15.90;;;8.90;;
51901;SDS011;37929;53.218;6.548;2023-12-04T10:04:39;15.27;;;8.13;;
51901;SDS011;37929;53.218;6.548;2023-12-04T10:07:07;13.70;;;8.00;;
51901;SDS011;37929;53.218;6.548;2023-12-04T10:09:33;13.77;;;8.27;;
51901;SDS011;37929;53.218;6.548;2023-12-04T10:11:59;15.00;;;8.18;;
51901;SDS011;37929;53.218;6.548;2023-12-04T10:14:25;14.90;;;9.00;;
51901;SDS011;37929;53.218;6.548;2023-12-04T10:16:51;15.88;;;9.23;;
51901;SDS011;37929;53.218;6.548;2023-12-04T10:19:27;15.63;;;8.93;;
51901;SDS011;37929;53.218;6.548;2023-12-04T10:21:56;14.32;;;7.85;;
51901;SDS011;37929;53.218;6.548;2023-12-04T10:24:31;12.38;;;7.60;;
51901;SDS011;37929;53.218;6.548;2023-12-04T10:26:59;15.15;;;8.45;;
51901;SDS011;37929;53.218;6.548;2023-12-04T10:29:28;13.80;;;8.65;;
51901;SDS011;37929;53.218;6.548;2023-12-04T10:31:58;14.00;;;8.45;;
51901;SDS011;37929;53.218;6.548;2023-12-04T10:34:25;13.63;;;8.38;;
51901;SDS011;37929;53.218;6.548;2023-12-04T10:36:51;13.88;;;8.07;;
51901;SDS011;37929;53.218;6.548;2023-12-04T10:39:18;13.50;;;7.80;;
51901;SDS011;37929;53.218;6.548;2023-12-04T10:41:44;14.98;;;7.93;;
51901;SDS011;37929;53.218;6.548;2023-12-04T10:44:15;14.40;;;7.85;;
51901;SDS011;37929;53.218;6.548;2023-12-04T10:46:42;14.97;;;8.40;;
51901;SDS011;37929;53.218;6.548;2023-12-04T10:49:10;15.70;;;8.07;;
51901;SDS011;37929;53.218;6.548;2023-12-04T10:51:37;14.63;;;8.10;;
51901;SDS011;37929;53.218;6.548;2023-12-04T10:54:04;16.65;;;8.45;;
51901;SDS011;37929;53.218;6.548;2023-12-04T10:56:32;15.25;;;8.15;;
51901;SDS011;37929;53.218;6.548;2023-12-04T10:59:03;17.42;;;8.65;;
51901;SDS011;37929;53.218;6.548;2023-12-04T11:01:36;13.65;;;7.75;;
51901;SDS011;37929;53.218;6.548;2023-12-04T11:04:02;18.25;;;8.55;;
51901;SDS011;37929;53.218;6.548;2023-12-04T11:06:32;13.25;;;7.78;;
51901;SDS011;37929;53.218;6.548;2023-12-04T11:09:04;16.15;;;8.20;;
51901;SDS011;37929;53.218;6.548;2023-12-04T11:11:31;13.02;;;7.13;;
51901;SDS011;37929;53.218;6.548;2023-12-04T11:14:01;15.60;;;7.78;;
51901;SDS011;37929;53.218;6.548;2023-12-04T11:21:58;12.82;;;7.72;;
51901;SDS011;37929;53.218;6.548;2023-12-04T11:24:25;14.15;;;8.55;;
51901;SDS011;37929;53.218;6.548;2023-12-04T11:26:51;12.70;;;7.55;;
51901;SDS011;37929;53.218;6.548;2023-12-04T11:29:18;15.48;;;8.38;;
51901;SDS011;37929;53.218;6.548;2023-12-04T11:31:44;14.55;;;8.25;;
51901;SDS011;37929;53.218;6.548;2023-12-04T11:34:11;13.82;;;7.85;;
51901;SDS011;37929;53.218;6.548;2023-12-04T11:36:38;13.32;;;7.55;;
51901;SDS011;37929;53.218;6.548;2023-12-04T11:39:05;14.23;;;7.60;;
51901;SDS011;37929;53.218;6.548;2023-12-04T11:41:36;12.18;;;7.47;;
51901;SDS011;37929;53.218;6.548;2023-12-04T11:44:02;13.90;;;8.10;;
51901;SDS011;37929;53.218;6.548;2023-12-04T11:46:28;13.18;;;7.47;;
51901;SDS011;37929;53.218;6.548;2023-12-04T11:51:46;16.48;;;8.52;;
51901;SDS011;37929;53.218;6.548;2023-12-04T11:54:17;13.80;;;7.72;;
51901;SDS011;37929;53.218;6.548;2023-12-04T11:57:00;13.15;;;7.70;;
51901;SDS011;37929;53.218;6.548;2023-12-04T11:59:26;14.50;;;7.63;;
51901;SDS011;37929;53.218;6.548;2023-12-04T12:01:56;12.02;;;7.05;;
51901;SDS011;37929;53.218;6.548;2023-12-04T12:04:23;15.07;;;7.78;;
51901;SDS011;37929;53.218;6.548;2023-12-04T12:06:50;11.95;;;7.25;;
51901;SDS011;37929;53.218;6.548;2023-12-04T12:09:16;12.43;;;7.35;;
51901;SDS011;37929;53.218;6.548;2023-12-04T12:11:42;10.35;;;7.25;;
51901;SDS011;37929;53.218;6.548;2023-12-04T12:14:09;11.80;;;7.05;;
51901;SDS011;37929;53.218;6.548;2023-12-04T12:16:34;14.52;;;7.32;;
51901;SDS011;37929;53.218;6.548;2023-12-04T12:19:05;11.38;;;7.00;;
51901;SDS011;37929;53.218;6.548;2023-12-04T12:21:31;13.02;;;7.25;;
51901;SDS011;37929;53.218;6.548;2023-12-04T12:23:57;14.02;;;8.10;;
51901;SDS011;37929;53.218;6.548;2023-12-04T12:26:24;14.43;;;7.60;;
51901;SDS011;37929;53.218;6.548;2023-12-04T12:28:50;12.18;;;7.15;;
51901;SDS011;37929;53.218;6.548;2023-12-04T12:31:16;12.27;;;7.35;;
51901;SDS011;37929;53.218;6.548;2023-12-04T12:33:42;13.13;;;7.45;;
51901;SDS011;37929;53.218;6.548;2023-12-04T12:36:08;13.55;;;8.23;;
51901;SDS011;37929;53.218;6.548;2023-12-04T12:38:35;11.07;;;6.78;;
51901;SDS011;37929;53.218;6.548;2023-12-04T12:41:05;11.77;;;8.20;;
51901;SDS011;37929;53.218;6.548;2023-12-04T12:43:32;11.88;;;7.50;;
51901;SDS011;37929;53.218;6.548;2023-12-04T12:45:58;12.98;;;7.55;;
51901;SDS011;37929;53.218;6.548;2023-12-04T12:48:26;11.27;;;6.47;;
51901;SDS011;37929;53.218;6.548;2023-12-04T12:50:52;13.98;;;7.53;;
51901;SDS011;37929;53.218;6.548;2023-12-04T12:53:20;12.25;;;7.68;;
51901;SDS011;37929;53.218;6.548;2023-12-04T12:55:47;12.77;;;7.20;;
51901;SDS011;37929;53.218;6.548;2023-12-04T12:58:13;11.05;;;7.32;;
51901;SDS011;37929;53.218;6.548;2023-12-04T13:00:40;11.55;;;7.05;;
51901;SDS011;37929;53.218;6.548;2023-12-04T13:03:14;12.40;;;7.50;;
51901;SDS011;37929;53.218;6.548;2023-12-04T13:05:44;13.20;;;7.43;;
51901;SDS011;37929;53.218;6.548;2023-12-04T13:08:10;12.63;;;7.80;;
51901;SDS011;37929;53.218;6.548;2023-12-04T13:10:37;12.50;;;7.13;;
51901;SDS011;37929;53.218;6.548;2023-12-04T13:13:03;13.85;;;7.68;;
51901;SDS011;37929;53.218;6.548;2023-12-04T13:15:29;13.02;;;7.53;;
51901;SDS011;37929;53.218;6.548;2023-12-04T13:17:55;12.95;;;6.82;;
51901;SDS011;37929;53.218;6.548;2023-12-04T13:20:21;13.60;;;7.40;;
51901;SDS011;37929;53.218;6.548;2023-12-04T13:22:48;12.60;;;7.90;;
51901;SDS011;37929;53.218;6.548;2023-12-04T13:25:14;11.65;;;6.80;;
51901;SDS011;37929;53.218;6.548;2023-12-04T13:27:40;14.93;;;8.38;;
51901;SDS011;37929;53.218;6.548;2023-12-04T13:30:06;13.00;;;8.23;;
51901;SDS011;37929;53.218;6.548;2023-12-04T13:32:38;11.45;;;7.72;;
51901;SDS011;37929;53.218;6.548;2023-12-04T13:35:04;12.20;;;7.65;;
51901;SDS011;37929;53.218;6.548;2023-12-04T13:37:31;14.68;;;7.85;;
51901;SDS011;37929;53.218;6.548;2023-12-04T13:39:58;13.23;;;8.20;;
51901;SDS011;37929;53.218;6.548;2023-12-04T13:42:29;12.25;;;7.72;;
51901;SDS011;37929;53.218;6.548;2023-12-04T13:45:13;14.95;;;7.65;;
51901;SDS011;37929;53.218;6.548;2023-12-04T13:47:39;13.82;;;8.13;;
51901;SDS011;37929;53.218;6.548;2023-12-04T13:50:05;13.77;;;7.30;;
51901;SDS011;37929;53.218;6.548;2023-12-04T13:52:36;14.38;;;8.10;;
51901;SDS011;37929;53.218;6.548;2023-12-04T13:55:03;12.02;;;7.63;;
51901;SDS011;37929;53.218;6.548;2023-12-04T13:57:45;11.95;;;7.40;;
51901;SDS011;37929;53.218;6.548;2023-12-04T14:00:23;13.00;;;7.85;;
51901;SDS011;37929;53.218;6.548;2023-12-04T14:02:49;11.40;;;7.13;;
51901;SDS011;37929;53.218;6.548;2023-12-04T14:05:18;11.80;;;7.53;;
51901;SDS011;37929;53.218;6.548;2023-12-04T14:07:47;12.80;;;7.47;;
51901;SDS011;37929;53.218;6.548;2023-12-04T14:10:15;12.95;;;7.78;;
51901;SDS011;37929;53.218;6.548;2023-12-04T14:12:44;13.20;;;7.60;;
51901;SDS011;37929;53.218;6.548;2023-12-04T14:15:10;14.05;;;8.18;;
51901;SDS011;37929;53.218;6.548;2023-12-04T14:17:36;13.38;;;8.05;;
51901;SDS011;37929;53.218;6.548;2023-12-04T14:20:04;14.35;;;8.27;;
51901;SDS011;37929;53.218;6.548;2023-12-04T14:22:38;13.35;;;7.50;;
51901;SDS011;37929;53.218;6.548;2023-12-04T14:25:08;13.02;;;7.65;;
51901;SDS011;37929;53.218;6.548;2023-12-04T14:27:34;10.98;;;7.25;;
51901;SDS011;37929;53.218;6.548;2023-12-04T14:30:00;12.05;;;7.13;;
51901;SDS011;37929;53.218;6.548;2023-12-04T14:32:30;11.77;;;7.50;;